createdAt,value
2022-08-30T00:00:42.320Z,98537.88
2022-08-30T00:03:16.981Z,98528.91
2022-08-30T00:05:47.817Z,98531.03
2022-08-30T00:08:18.017Z,98530.97
2022-08-30T00:10:49.068Z,98524.53
2022-08-30T00:13:18.723Z,98530.00
2022-08-30T00:15:49.042Z,98525.72
2022-08-30T00:18:24.513Z,98520.53
2022-08-30T00:20:55.972Z,98522.03
2022-08-30T00:23:25.969Z,98531.56
2022-08-30T00:25:55.685Z,98528.06
2022-08-30T00:28:25.360Z,98530.94
2022-08-30T00:30:55.022Z,98521.97
2022-08-30T00:33:27.650Z,98531.00
2022-08-30T00:35:57.946Z,98530.22
2022-08-30T00:38:28.280Z,98534.84
2022-08-30T00:40:59.863Z,98538.66
2022-08-30T00:43:32.073Z,98540.03
2022-08-30T00:46:04.662Z,98537.03
2022-08-30T00:48:40.996Z,98537.25
2022-08-30T00:51:12.892Z,98540.19
2022-08-30T00:53:47.122Z,98540.75
2022-08-30T00:56:18.049Z,98545.00
2022-08-30T00:58:51.594Z,98536.25
2022-08-30T01:01:21.956Z,98531.56
2022-08-30T01:03:54.975Z,98539.66
2022-08-30T01:06:26.168Z,98527.50
2022-08-30T01:09:03.538Z,98535.31
2022-08-30T01:11:36.005Z,98535.03
2022-08-30T01:14:07.518Z,98534.19
2022-08-30T01:16:38.807Z,98535.16
2022-08-30T01:19:21.173Z,98542.41
2022-08-30T01:21:55.378Z,98536.09
2022-08-30T01:24:27.701Z,98539.28
2022-08-30T01:26:57.840Z,98535.66
2022-08-30T01:29:28.793Z,98534.19
2022-08-30T01:31:58.411Z,98535.97
2022-08-30T01:34:28.414Z,98527.69
2022-08-30T01:36:58.071Z,98535.28
2022-08-30T01:39:30.491Z,98525.78
2022-08-30T01:42:01.095Z,98530.94
2022-08-30T01:44:30.734Z,98530.16
2022-08-30T01:47:00.260Z,98530.94
2022-08-30T01:49:30.401Z,98534.16
2022-08-30T01:52:01.540Z,98536.25
2022-08-30T01:54:38.158Z,98540.72
2022-08-30T01:57:10.047Z,98544.72
2022-08-30T01:59:41.231Z,98540.75
2022-08-30T02:02:11.352Z,98544.25
2022-08-30T02:04:40.940Z,98542.75
2022-08-30T02:07:10.636Z,98542.06
2022-08-30T02:09:43.011Z,98544.06
2022-08-30T02:12:12.742Z,98546.03
2022-08-30T02:14:42.363Z,98545.97
2022-08-30T02:17:14.247Z,98545.97
2022-08-30T02:19:44.715Z,98543.19
2022-08-30T02:22:14.796Z,98538.47
2022-08-30T02:24:46.987Z,98536.34
2022-08-30T02:27:16.602Z,98537.13
2022-08-30T02:29:46.194Z,98536.22
2022-08-30T02:32:15.754Z,98526.75
2022-08-30T02:34:47.295Z,98530.88
2022-08-30T02:37:16.999Z,98527.56
2022-08-30T02:39:49.244Z,98525.31
2022-08-30T02:42:18.863Z,98532.06
2022-08-30T02:44:48.560Z,98523.03
2022-08-30T02:47:18.193Z,98519.72
2022-08-30T02:49:47.812Z,98521.75
2022-08-30T02:52:17.458Z,98518.41
2022-08-30T02:54:49.752Z,98517.47
2022-08-30T02:57:20.260Z,98516.31
2022-08-30T02:59:50.280Z,98526.16
2022-08-30T03:02:22.320Z,98528.47
2022-08-30T03:04:52.086Z,98524.03
2022-08-30T03:07:22.308Z,98523.75
2022-08-30T03:09:54.506Z,98531.38
2022-08-30T03:12:25.266Z,98520.03
2022-08-30T03:14:55.240Z,98517.28
2022-08-30T03:17:24.879Z,98519.66
2022-08-30T03:19:54.538Z,98510.84
2022-08-30T03:22:24.194Z,98506.47
2022-08-30T03:24:58.118Z,98504.03
2022-08-30T03:27:28.064Z,98502.75
2022-08-30T03:29:58.282Z,98498.56
2022-08-30T03:32:27.882Z,98504.09
2022-08-30T03:34:57.490Z,98491.72
2022-08-30T03:37:27.651Z,98507.16
2022-08-30T03:39:59.970Z,98501.25
2022-08-30T03:42:29.735Z,98504.78
2022-08-30T03:44:59.478Z,98508.16
2022-08-30T03:47:29.127Z,98510.25
2022-08-30T03:49:58.866Z,98497.41
2022-08-30T03:52:29.719Z,98491.06
2022-08-30T03:55:02.772Z,98499.78
2022-08-30T03:57:32.519Z,98499.88
2022-08-30T04:00:04.655Z,98500.72
2022-08-30T04:02:34.261Z,98501.09
2022-08-30T04:05:03.902Z,98507.16
2022-08-30T04:07:33.494Z,98513.81
2022-08-30T04:10:05.757Z,98527.28
2022-08-30T04:12:37.928Z,98530.03
2022-08-30T04:15:10.603Z,98523.03
2022-08-30T04:17:40.260Z,98520.34
2022-08-30T04:20:11.433Z,98517.66
2022-08-30T04:22:41.047Z,98517.66
2022-08-30T04:25:15.489Z,98513.34
2022-08-30T04:27:45.910Z,98507.94
2022-08-30T04:30:17.710Z,98504.94
2022-08-30T04:32:48.145Z,98510.66
2022-08-30T04:35:17.711Z,98505.91
2022-08-30T04:37:47.258Z,98512.97
2022-08-30T04:40:19.665Z,98514.63
2022-08-30T04:42:54.088Z,98507.56
2022-08-30T04:45:24.598Z,98520.34
2022-08-30T04:47:54.709Z,98524.03
2022-08-30T04:50:26.156Z,98532.81
2022-08-30T04:52:55.833Z,98526.78
2022-08-30T04:55:28.425Z,98530.50
2022-08-30T04:57:58.134Z,98532.44
2022-08-30T05:00:28.028Z,98542.41
2022-08-30T05:02:57.641Z,98541.56
2022-08-30T05:05:42.725Z,98545.75
2022-08-30T05:08:15.764Z,98543.06
2022-08-30T05:10:50.956Z,98546.91
2022-08-30T05:13:35.274Z,98549.47
2022-08-30T05:16:08.814Z,98559.22
2022-08-30T05:18:39.678Z,98556.59
2022-08-30T05:21:12.154Z,98558.72
2022-08-30T05:23:43.171Z,98562.91
2022-08-30T05:26:18.040Z,98563.19
2022-08-30T05:28:49.682Z,98558.53
2022-08-30T05:31:22.772Z,98568.91
2022-08-30T05:33:53.835Z,98568.31
2022-08-30T05:36:25.454Z,98576.00
2022-08-30T05:38:56.236Z,98579.16
2022-08-30T05:41:29.367Z,98579.56
2022-08-30T05:44:00.927Z,98578.19
2022-08-30T05:49:22.898Z,98567.34
2022-08-30T05:51:52.629Z,98563.41
2022-08-30T05:54:22.300Z,98568.50
2022-08-30T05:56:54.528Z,98563.09
2022-08-30T05:59:24.149Z,98566.47
2022-08-30T06:01:53.880Z,98563.72
2022-08-30T06:04:23.530Z,98554.25
2022-08-30T06:06:53.183Z,98564.03
2022-08-30T06:09:22.953Z,98558.78
2022-08-30T06:11:55.190Z,98551.59
2022-08-30T06:14:24.841Z,98558.91
2022-08-30T06:16:54.704Z,98563.22
2022-08-30T06:19:24.304Z,98562.38
2022-08-30T06:21:54.706Z,98564.94
2022-08-30T06:24:35.726Z,98566.44
2022-08-30T06:27:16.569Z,98570.38
2022-08-30T06:29:46.160Z,98570.56
2022-08-30T06:32:15.784Z,98567.25
2022-08-30T06:34:45.437Z,98564.97
2022-08-30T06:37:29.344Z,98571.38
2022-08-30T06:40:00.203Z,98565.84
2022-08-30T06:42:34.617Z,98564.03
2022-08-30T06:45:10.744Z,98557.81
2022-08-30T06:47:41.283Z,98560.44
2022-08-30T06:50:12.996Z,98550.00
2022-08-30T06:52:43.989Z,98552.44
2022-08-30T06:55:14.692Z,98559.59
2022-08-30T06:57:47.228Z,98560.44
2022-08-30T07:00:19.486Z,98563.16
2022-08-30T07:02:49.178Z,98556.28
2022-08-30T07:05:22.094Z,98554.22
2022-08-30T07:07:53.374Z,98555.53
2022-08-30T07:10:23.472Z,98553.72
2022-08-30T07:12:55.687Z,98549.19
2022-08-30T07:15:25.556Z,98547.91
2022-08-30T07:18:07.590Z,98549.09
2022-08-30T07:20:40.044Z,98553.03
2022-08-30T07:23:10.657Z,98552.38
2022-08-30T07:25:41.435Z,98552.06
2022-08-30T07:28:16.777Z,98556.38
2022-08-30T07:30:46.673Z,98554.97
2022-08-30T07:33:16.416Z,98561.94
2022-08-30T07:35:46.733Z,98562.59
2022-08-30T07:38:17.081Z,98559.69
2022-08-30T07:40:46.807Z,98562.81
2022-08-30T07:43:19.154Z,98565.47
2022-08-30T07:45:49.212Z,98554.03
2022-08-30T07:48:18.893Z,98566.81
2022-08-30T07:50:52.559Z,98561.25
2022-08-30T07:53:24.817Z,98571.84
2022-08-30T07:55:54.727Z,98568.91
2022-08-30T07:58:26.941Z,98577.16
2022-08-30T08:00:59.534Z,98570.00
2022-08-30T08:03:29.616Z,98568.06
2022-08-30T08:06:00.180Z,98565.41
2022-08-30T08:08:29.847Z,98559.47
2022-08-30T08:10:59.608Z,98561.16
2022-08-30T08:13:32.681Z,98561.34
2022-08-30T08:16:02.606Z,98562.44
2022-08-30T08:18:32.405Z,98557.66
2022-08-30T08:21:02.828Z,98561.22
2022-08-30T08:23:32.879Z,98556.13
2022-08-30T08:26:02.636Z,98559.00
2022-08-30T08:28:34.912Z,98558.22
2022-08-30T08:31:04.594Z,98560.75
2022-08-30T08:33:34.327Z,98563.22
2022-08-30T08:36:07.472Z,98570.97
2022-08-30T08:38:39.450Z,98560.53
2022-08-30T08:41:15.856Z,98555.84
2022-08-30T08:43:48.147Z,98553.50
2022-08-30T08:46:27.841Z,98552.41
2022-08-30T08:49:01.177Z,98547.78
2022-08-30T08:51:46.736Z,98548.72
2022-08-30T08:54:21.910Z,98545.84
2022-08-30T08:56:51.563Z,98544.59
2022-08-30T08:59:24.169Z,98540.75
2022-08-30T09:01:54.276Z,98542.63
2022-08-30T09:04:33.604Z,98540.41
2022-08-30T09:07:08.099Z,98529.28
2022-08-30T09:09:40.373Z,98540.34
2022-08-30T09:12:13.310Z,98535.41
2022-08-30T09:14:49.343Z,98531.53
2022-08-30T09:17:20.711Z,98537.97
2022-08-30T09:20:02.677Z,98537.72
2022-08-30T09:22:37.889Z,98530.34
2022-08-30T09:25:11.053Z,98525.06
2022-08-30T09:27:42.930Z,98536.88
2022-08-30T09:30:21.212Z,98528.22
2022-08-30T09:32:55.775Z,98527.91
2022-08-30T09:35:28.889Z,98518.06
2022-08-30T09:38:00.186Z,98521.72
2022-08-30T09:40:37.747Z,98504.53
2022-08-30T09:43:12.245Z,98513.31
2022-08-30T09:45:47.336Z,98512.38
2022-08-30T09:48:44.113Z,98504.25
2022-08-30T09:51:33.459Z,98504.72
2022-08-30T09:54:19.745Z,98498.47
2022-08-30T09:56:58.564Z,98500.78
2022-08-30T09:59:42.137Z,98503.09
2022-08-30T10:02:34.031Z,98498.59
2022-08-30T10:05:08.371Z,98490.38
2022-08-30T10:07:46.882Z,98486.78
2022-08-30T10:10:24.555Z,98485.75
2022-08-30T10:13:04.417Z,98482.34
2022-08-30T10:15:40.654Z,98480.59
2022-08-30T10:18:19.210Z,98483.94
2022-08-30T10:20:59.329Z,98473.94
2022-08-30T10:23:34.681Z,98475.06
2022-08-30T10:26:12.818Z,98471.94
2022-08-30T10:28:47.161Z,98467.91
2022-08-30T10:31:27.666Z,98464.13
2022-08-30T10:34:06.160Z,98463.97
2022-08-30T10:36:42.958Z,98457.09
2022-08-30T10:39:19.184Z,98452.53
2022-08-30T10:41:53.212Z,98458.75
2022-08-30T10:44:28.795Z,98462.00
2022-08-30T10:47:08.278Z,98457.44
2022-08-30T10:49:44.847Z,98452.03
2022-08-30T10:52:28.299Z,98451.06
2022-08-30T10:55:02.897Z,98452.28
2022-08-30T10:57:32.620Z,98458.56
2022-08-30T11:00:07.689Z,98446.91
2022-08-30T11:03:30.941Z,98448.25
2022-08-30T11:06:21.262Z,98447.84
2022-08-30T11:09:12.385Z,98437.22
2022-08-30T11:11:58.187Z,98438.22
2022-08-30T11:14:29.160Z,98430.34
2022-08-30T11:17:02.104Z,98436.00
2022-08-30T11:19:40.865Z,98437.00
2022-08-30T11:22:24.463Z,98426.75
2022-08-30T11:25:10.115Z,98436.72
2022-08-30T11:27:46.393Z,98435.00
2022-08-30T11:30:46.065Z,98428.44
2022-08-30T11:33:46.117Z,98432.50
2022-08-30T11:36:51.099Z,98425.19
2022-08-30T11:39:50.588Z,98430.81
2022-08-30T11:45:54.874Z,98430.53
2022-08-30T11:48:54.359Z,98427.41
2022-08-30T11:52:26.272Z,98436.94
2022-08-30T11:55:07.784Z,98422.13
2022-08-30T11:57:51.267Z,98418.78
2022-08-30T12:00:34.284Z,98424.72
2022-08-30T12:03:07.221Z,98420.84
2022-08-30T12:06:05.236Z,98419.53
2022-08-30T12:08:59.613Z,98423.03
2022-08-30T12:12:03.973Z,98416.34
2022-08-30T12:14:52.799Z,98415.31
2022-08-30T12:17:47.455Z,98415.44
2022-08-30T12:20:21.888Z,98417.25
2022-08-30T12:22:52.945Z,98418.00
2022-08-30T12:25:28.152Z,98407.78
2022-08-30T12:28:16.743Z,98414.66
2022-08-30T12:30:49.177Z,98407.88
2022-08-30T12:33:29.137Z,98408.41
2022-08-30T12:36:01.011Z,98410.69
2022-08-30T12:38:32.830Z,98414.41
2022-08-30T12:41:05.769Z,98408.69
2022-08-30T12:43:40.483Z,98407.00
2022-08-30T12:46:16.248Z,98417.84
2022-08-30T12:48:47.427Z,98410.31
2022-08-30T12:51:32.570Z,98403.19
2022-08-30T12:54:08.777Z,98397.44
2022-08-30T12:57:09.976Z,98401.53
2022-08-30T12:59:59.496Z,98391.69
2022-08-30T13:02:46.208Z,98400.16
2022-08-30T13:05:36.146Z,98393.50
2022-08-30T13:08:18.572Z,98384.34
2022-08-30T13:10:57.622Z,98384.81
2022-08-30T13:13:37.618Z,98373.44
2022-08-30T13:16:26.310Z,98369.59
2022-08-30T13:19:19.394Z,98375.91
2022-08-30T13:21:54.589Z,98368.88
2022-08-30T13:24:25.764Z,98363.63
2022-08-30T13:26:56.297Z,98357.44
2022-08-30T13:29:29.626Z,98345.84
2022-08-30T13:31:59.385Z,98344.28
2022-08-30T13:34:33.201Z,98340.22
2022-08-30T13:37:03.131Z,98343.03
2022-08-30T13:39:33.171Z,98334.47
2022-08-30T13:44:54.084Z,98334.16
2022-08-30T13:47:39.672Z,98333.34
2022-08-30T13:50:14.742Z,98331.81
2022-08-30T13:52:47.659Z,98328.28
2022-08-30T13:55:18.020Z,98333.44
2022-08-30T13:57:56.077Z,98319.22
2022-08-30T14:00:27.399Z,98321.03
2022-08-30T14:02:59.993Z,98314.25
2022-08-30T14:05:57.389Z,98314.72
2022-08-30T14:11:21.094Z,98302.91
2022-08-30T14:16:45.191Z,98299.81
2022-08-30T14:19:16.338Z,98298.88
2022-08-30T14:21:49.457Z,98288.41
2022-08-30T14:24:20.256Z,98295.00
2022-08-30T14:26:53.247Z,98292.84
2022-08-30T14:29:26.252Z,98294.34
2022-08-30T14:32:00.171Z,98292.44
2022-08-30T14:34:30.449Z,98288.47
2022-08-30T14:37:06.816Z,98292.84
2022-08-30T14:39:36.781Z,98287.09
2022-08-30T14:42:07.523Z,98295.16
2022-08-30T14:44:55.097Z,98281.38
2022-08-30T14:47:29.783Z,98291.19
2022-08-30T14:50:01.970Z,98286.56
2022-08-30T14:52:34.792Z,98282.59
2022-08-30T14:55:09.073Z,98286.97
2022-08-30T14:57:39.533Z,98281.59
2022-08-30T15:00:12.278Z,98282.06
2022-08-30T15:02:41.892Z,98284.28
2022-08-30T15:05:12.011Z,98271.22
2022-08-30T15:07:46.878Z,98274.75
2022-08-30T15:10:17.092Z,98272.50
2022-08-30T15:12:49.309Z,98282.78
2022-08-30T15:15:22.413Z,98271.69
2022-08-30T15:17:52.275Z,98275.41
2022-08-30T15:20:22.284Z,98267.78
2022-08-30T15:22:54.518Z,98264.69
2022-08-30T15:25:24.357Z,98263.69
2022-08-30T15:27:54.141Z,98273.81
2022-08-30T15:30:23.873Z,98274.50
2022-08-30T15:32:53.976Z,98256.59
2022-08-30T15:35:23.789Z,98262.00
2022-08-30T15:37:56.059Z,98272.28
2022-08-30T15:40:26.422Z,98275.03
2022-08-30T15:42:56.200Z,98280.56
2022-08-30T15:45:25.871Z,98269.25
2022-08-30T15:47:55.607Z,98259.84
2022-08-30T15:50:25.684Z,98266.31
2022-08-30T15:52:58.187Z,98268.28
2022-08-30T15:55:28.044Z,98261.59
2022-08-30T15:57:58.144Z,98262.75
2022-08-30T16:00:27.762Z,98256.38
2022-08-30T16:02:57.439Z,98257.06
2022-08-30T16:05:29.401Z,98255.81
2022-08-30T16:08:01.763Z,98262.59
2022-08-30T16:10:31.495Z,98263.59
2022-08-30T16:13:02.888Z,98255.50
2022-08-30T16:15:32.947Z,98253.09
2022-08-30T16:18:02.619Z,98249.78
2022-08-30T16:20:32.240Z,98254.97
2022-08-30T16:23:04.474Z,98250.91
2022-08-30T16:25:41.170Z,98248.22
2022-08-30T16:28:11.516Z,98247.06
2022-08-30T16:30:41.260Z,98243.66
2022-08-30T16:33:13.694Z,98245.22
2022-08-30T16:35:43.299Z,98245.31
2022-08-30T16:38:16.742Z,98250.38
2022-08-30T16:40:46.355Z,98242.34
2022-08-30T16:43:16.585Z,98241.47
2022-08-30T16:45:48.515Z,98238.38
2022-08-30T16:48:19.284Z,98231.59
2022-08-30T16:50:49.180Z,98229.09
2022-08-30T16:53:21.600Z,98234.00
2022-08-30T16:55:51.638Z,98227.03
2022-08-30T16:58:24.620Z,98228.28
2022-08-30T17:00:56.014Z,98226.91
2022-08-30T17:03:25.725Z,98238.34
2022-08-30T17:05:57.138Z,98239.00
2022-08-30T17:08:29.878Z,98229.03
2022-08-30T17:11:00.766Z,98228.16
2022-08-30T17:13:30.414Z,98229.78
2022-08-30T17:16:02.938Z,98238.19
2022-08-30T17:18:33.590Z,98243.88
2022-08-30T17:21:03.220Z,98239.91
2022-08-30T17:23:35.483Z,98250.84
2022-08-30T17:26:05.529Z,98252.06
2022-08-30T17:28:35.439Z,98252.63
2022-08-30T17:31:05.325Z,98257.44
2022-08-30T17:33:38.980Z,98260.91
2022-08-30T17:36:09.817Z,98279.59
2022-08-30T17:38:44.985Z,98270.72
2022-08-30T17:41:16.201Z,98275.13
2022-08-30T17:43:45.870Z,98277.16
2022-08-30T17:46:18.841Z,98280.78
2022-08-30T17:48:56.540Z,98284.03
2022-08-30T17:51:31.639Z,98285.31
2022-08-30T17:54:04.077Z,98286.13
2022-08-30T17:56:35.640Z,98287.72
2022-08-30T17:59:09.083Z,98291.59
2022-08-30T18:01:39.279Z,98283.34
2022-08-30T18:04:09.487Z,98296.25
2022-08-30T18:06:39.894Z,98291.31
2022-08-30T18:09:12.717Z,98286.81
2022-08-30T18:11:42.807Z,98289.78
2022-08-30T18:14:13.071Z,98299.75
2022-08-30T18:16:53.789Z,98306.91
2022-08-30T18:19:24.997Z,98299.59
2022-08-30T18:21:55.242Z,98301.00
2022-08-30T18:24:29.561Z,98299.28
2022-08-30T18:26:59.790Z,98301.00
2022-08-30T18:29:31.507Z,98305.06
2022-08-30T18:32:01.587Z,98304.41
2022-08-30T18:34:31.788Z,98305.38
2022-08-30T18:37:02.614Z,98313.28
2022-08-30T18:39:35.007Z,98318.44
2022-08-30T18:42:06.190Z,98320.59
2022-08-30T18:44:36.605Z,98322.16
2022-08-30T18:47:07.922Z,98325.69
2022-08-30T18:49:39.169Z,98332.66
2022-08-30T18:52:12.561Z,98328.00
2022-08-30T18:54:52.424Z,98338.25
2022-08-30T18:57:22.912Z,98325.53
2022-08-30T18:59:52.632Z,98341.97
2022-08-30T19:02:23.166Z,98337.66
2022-08-30T19:04:57.578Z,98334.53
2022-08-30T19:07:34.372Z,98335.47
2022-08-30T19:10:12.362Z,98342.44
2022-08-30T19:12:42.308Z,98344.75
2022-08-30T19:15:13.333Z,98344.91
2022-08-30T19:17:46.806Z,98343.81
2022-08-30T19:20:19.431Z,98348.63
2022-08-30T19:23:10.051Z,98343.66
2022-08-30T19:25:42.829Z,98353.13
2022-08-30T19:28:13.411Z,98354.97
2022-08-30T19:33:32.914Z,98358.38
2022-08-30T19:36:03.327Z,98354.78
2022-08-30T19:38:33.923Z,98358.66
2022-08-30T19:41:07.786Z,98357.44
2022-08-30T19:43:37.855Z,98361.28
2022-08-30T19:46:07.654Z,98360.06
2022-08-30T19:48:43.163Z,98357.44
2022-08-30T19:51:13.928Z,98357.28
2022-08-30T19:53:44.110Z,98353.88
2022-08-30T19:56:16.326Z,98349.38
2022-08-30T19:58:46.165Z,98355.09
2022-08-30T20:01:32.196Z,98363.00
2022-08-30T20:04:03.243Z,98363.59
2022-08-30T20:06:34.007Z,98361.97
2022-08-30T20:09:04.346Z,98362.31
2022-08-30T20:11:37.247Z,98370.22
2022-08-30T20:14:06.955Z,98360.25
2022-08-30T20:16:37.886Z,98359.78
2022-08-30T20:19:08.147Z,98359.16
2022-08-30T20:21:39.127Z,98355.13
2022-08-30T20:24:09.842Z,98358.84
2022-08-30T20:26:42.718Z,98360.72
2022-08-30T20:29:12.800Z,98359.75
2022-08-30T20:31:42.521Z,98362.69
2022-08-30T20:34:12.160Z,98362.81
2022-08-30T20:36:42.295Z,98360.19
2022-08-30T20:39:17.328Z,98358.31
2022-08-30T20:41:49.899Z,98353.66
2022-08-30T20:44:20.419Z,98349.00
2022-08-30T20:46:50.934Z,98353.31
2022-08-30T20:49:20.998Z,98349.44
2022-08-30T20:51:54.124Z,98352.81
2022-08-30T20:54:24.499Z,98347.56
2022-08-30T20:56:56.774Z,98344.94
2022-08-30T20:59:28.004Z,98344.13
2022-08-30T21:01:59.536Z,98344.94
2022-08-30T21:04:31.670Z,98351.28
2022-08-30T21:07:01.778Z,98345.03
2022-08-30T21:09:31.655Z,98336.97
2022-08-30T21:12:04.073Z,98335.72
2022-08-30T21:14:33.860Z,98343.13
2022-08-30T21:17:03.924Z,98352.06
2022-08-30T21:19:34.897Z,98347.25
2022-08-30T21:22:05.411Z,98342.34
2022-08-30T21:24:35.262Z,98350.25
2022-08-30T21:27:07.870Z,98352.84
2022-08-30T21:29:38.366Z,98351.41
2022-08-30T21:32:08.547Z,98353.84
2022-08-30T21:34:58.920Z,98356.34
2022-08-30T21:37:26.215Z,98353.56
2022-08-30T21:39:55.848Z,98361.59
2022-08-30T21:42:28.110Z,98352.91
2022-08-30T21:44:57.734Z,98352.47
2022-08-30T21:47:28.114Z,98354.47
2022-08-30T21:49:58.054Z,98363.72
2022-08-30T21:55:03.097Z,98361.53
2022-08-30T21:57:35.479Z,98363.72
2022-08-30T22:00:07.242Z,98363.09
2022-08-30T22:02:37.311Z,98360.88
2022-08-30T22:05:07.462Z,98372.16
2022-08-30T22:07:37.493Z,98368.78
2022-08-30T22:10:08.538Z,98372.78
2022-08-30T22:12:41.386Z,98366.84
2022-08-30T22:15:12.524Z,98372.16
2022-08-30T22:17:42.165Z,98363.28
2022-08-30T22:20:16.194Z,98363.00
2022-08-30T22:22:48.543Z,98370.00
2022-08-30T22:25:18.151Z,98373.56
2022-08-30T22:27:50.330Z,98372.28
2022-08-30T22:30:20.374Z,98367.16
2022-08-30T22:32:50.400Z,98377.59
2022-08-30T22:35:22.292Z,98380.00
2022-08-30T22:37:53.617Z,98384.31
2022-08-30T22:40:23.813Z,98383.03
2022-08-30T22:42:56.077Z,98387.88
2022-08-30T22:45:25.941Z,98382.59
2022-08-30T22:47:55.631Z,98385.47
2022-08-30T22:50:25.470Z,98390.31
2022-08-30T22:52:55.038Z,98373.94
2022-08-30T22:55:24.681Z,98378.69
2022-08-30T22:57:57.381Z,98381.38
2022-08-30T23:00:27.439Z,98385.41
2022-08-30T23:02:57.117Z,98381.38
2022-08-30T23:05:27.704Z,98391.13
2022-08-30T23:07:57.348Z,98396.22
2022-08-30T23:10:28.311Z,98405.91
2022-08-30T23:13:01.371Z,98405.13
2022-08-30T23:15:31.913Z,98404.84
2022-08-30T23:18:01.577Z,98405.41
2022-08-30T23:20:31.504Z,98400.59
2022-08-30T23:22:58.415Z,98399.03
2022-08-30T23:25:44.540Z,98399.63
2022-08-30T23:28:32.592Z,98394.94
2022-08-30T23:31:24.054Z,98389.59
2022-08-30T23:34:06.184Z,98392.59
2022-08-30T23:36:52.340Z,98390.81
2022-08-30T23:39:34.361Z,98388.91
2022-08-30T23:42:16.417Z,98389.69
2022-08-30T23:45:01.046Z,98390.25
2022-08-30T23:47:43.132Z,98381.81
2022-08-30T23:50:25.179Z,98384.13
2022-08-30T23:53:07.285Z,98386.03
2022-08-30T23:55:53.676Z,98377.69
2022-08-30T23:58:35.733Z,98384.94
